createdAt,value
2022-10-30T00:01:01.808Z,8.43
2022-10-30T00:03:28.412Z,8.98
2022-10-30T00:05:55.314Z,8.70
2022-10-30T00:08:25.474Z,8.52
2022-10-30T00:10:52.643Z,12.57
2022-10-30T00:13:20.110Z,10.10
2022-10-30T00:15:48.778Z,12.65
2022-10-30T00:18:15.626Z,9.82
2022-10-30T00:20:42.263Z,13.73
2022-10-30T00:23:09.048Z,10.25
2022-10-30T00:25:36.501Z,12.07
2022-10-30T00:28:06.753Z,11.65
2022-10-30T00:30:34.509Z,10.23
2022-10-30T00:33:01.546Z,13.40
2022-10-30T00:35:28.288Z,11.20
2022-10-30T00:37:55.172Z,12.63
2022-10-30T00:40:22.335Z,10.60
2022-10-30T00:42:49.006Z,11.52
2022-10-30T00:45:17.295Z,8.55
2022-10-30T00:47:53.543Z,12.02
2022-10-30T00:50:30.575Z,10.32
2022-10-30T00:52:57.369Z,9.95
2022-10-30T00:55:29.410Z,8.73
2022-10-30T00:57:57.330Z,12.50
2022-10-30T01:00:27.263Z,7.05
2022-10-30T01:02:54.214Z,14.50
2022-10-30T01:05:23.636Z,9.73
2022-10-30T01:07:50.265Z,9.10
2022-10-30T01:10:18.062Z,9.55
2022-10-30T01:12:46.368Z,12.40
2022-10-30T01:15:14.101Z,9.18
2022-10-30T01:17:49.772Z,8.70
2022-10-30T01:20:28.037Z,10.27
2022-10-30T01:23:06.233Z,8.25
2022-10-30T01:25:35.933Z,10.85
2022-10-30T01:28:30.687Z,9.25
2022-10-30T01:31:16.348Z,14.43
2022-10-30T01:33:42.866Z,12.48
2022-10-30T01:36:39.888Z,5.63
2022-10-30T01:39:15.548Z,6.40
2022-10-30T01:41:42.225Z,6.55
2022-10-30T01:44:17.925Z,5.75
2022-10-30T01:46:53.825Z,10.05
2022-10-30T01:49:40.098Z,16.27
2022-10-30T01:52:18.879Z,22.95
2022-10-30T01:55:35.814Z,14.80
2022-10-30T01:58:28.457Z,15.82
2022-10-30T02:00:58.803Z,15.82
2022-10-30T02:03:26.916Z,15.20
2022-10-30T02:05:54.616Z,10.70
2022-10-30T02:08:24.518Z,13.23
2022-10-30T02:10:53.609Z,10.27
2022-10-30T02:13:21.171Z,15.02
2022-10-30T02:15:48.911Z,15.93
2022-10-30T02:18:16.004Z,14.38
2022-10-30T02:20:42.713Z,16.83
2022-10-30T02:23:13.434Z,15.95
2022-10-30T02:25:40.151Z,13.80
2022-10-30T02:28:06.762Z,9.00
2022-10-30T02:30:33.703Z,18.05
2022-10-30T02:33:00.637Z,22.90
2022-10-30T02:35:27.610Z,15.13
2022-10-30T02:37:54.466Z,13.38
2022-10-30T02:40:21.298Z,13.63
2022-10-30T02:42:55.107Z,15.90
2022-10-30T02:45:22.446Z,16.90
2022-10-30T02:47:49.289Z,16.42
2022-10-30T02:50:16.602Z,12.13
2022-10-30T02:52:43.212Z,12.23
2022-10-30T02:55:09.988Z,15.77
2022-10-30T02:57:36.602Z,14.70
2022-10-30T03:00:04.618Z,31.02
2022-10-30T03:02:31.206Z,21.20
2022-10-30T03:04:57.989Z,28.55
2022-10-30T03:07:24.589Z,18.33
2022-10-30T03:09:52.159Z,16.35
2022-10-30T03:12:18.774Z,18.90
2022-10-30T03:14:45.605Z,19.13
2022-10-30T03:17:12.280Z,15.40
2022-10-30T03:19:40.879Z,15.20
2022-10-30T03:22:07.920Z,17.02
2022-10-30T03:24:34.803Z,15.88
2022-10-30T03:27:01.347Z,14.07
2022-10-30T03:29:28.837Z,14.73
2022-10-30T03:31:55.482Z,14.82
2022-10-30T03:34:22.089Z,18.42
2022-10-30T03:36:49.010Z,16.45
2022-10-30T03:39:15.581Z,18.42
2022-10-30T03:41:43.426Z,15.05
2022-10-30T03:44:10.084Z,18.65
2022-10-30T03:46:36.868Z,15.77
2022-10-30T03:49:03.548Z,10.70
2022-10-30T03:51:30.137Z,13.98
2022-10-30T03:53:56.851Z,14.80
2022-10-30T03:56:23.418Z,12.48
2022-10-30T03:58:50.095Z,9.43
2022-10-30T04:01:16.707Z,9.07
2022-10-30T04:03:43.419Z,8.52
2022-10-30T04:06:10.210Z,11.40
2022-10-30T04:08:37.072Z,8.52
2022-10-30T04:11:04.107Z,11.65
2022-10-30T04:13:30.737Z,16.42
2022-10-30T04:15:58.375Z,9.85
2022-10-30T04:18:26.225Z,6.22
2022-10-30T04:20:52.860Z,11.18
2022-10-30T04:23:20.467Z,33.22
2022-10-30T04:25:47.317Z,7.15
2022-10-30T04:28:14.810Z,28.65
2022-10-30T04:30:41.643Z,37.25
2022-10-30T04:33:11.385Z,12.68
2022-10-30T04:35:38.711Z,83.90
2022-10-30T04:38:07.999Z,130.02
2022-10-30T04:40:37.276Z,11.05
2022-10-30T04:43:04.938Z,9.57
2022-10-30T04:45:32.052Z,9.85
2022-10-30T04:48:07.122Z,7.90
2022-10-30T04:50:34.855Z,8.13
2022-10-30T04:53:03.090Z,9.15
2022-10-30T04:55:30.651Z,10.50
2022-10-30T04:57:59.283Z,7.93
2022-10-30T05:00:26.959Z,10.55
2022-10-30T05:02:53.610Z,14.38
2022-10-30T05:05:20.709Z,13.25
2022-10-30T05:07:47.464Z,12.75
2022-10-30T05:10:14.995Z,13.60
2022-10-30T05:12:43.322Z,29.00
2022-10-30T05:15:11.382Z,18.63
2022-10-30T05:17:38.249Z,16.50
2022-10-30T05:20:06.071Z,17.17
2022-10-30T05:22:33.047Z,15.77
2022-10-30T05:24:59.666Z,12.18
2022-10-30T05:27:26.254Z,13.32
2022-10-30T05:29:52.828Z,22.55
2022-10-30T05:32:19.437Z,16.50
2022-10-30T05:34:46.163Z,15.65
2022-10-30T05:37:12.718Z,13.27
2022-10-30T05:39:39.350Z,14.02
2022-10-30T05:42:09.785Z,14.00
2022-10-30T05:44:59.904Z,16.08
2022-10-30T05:47:25.987Z,18.85
2022-10-30T05:49:52.567Z,16.98
2022-10-30T05:52:19.121Z,14.50
2022-10-30T05:54:45.727Z,14.07
2022-10-30T05:57:12.309Z,19.08
2022-10-30T05:59:38.932Z,11.88
2022-10-30T06:02:05.699Z,20.98
2022-10-30T06:04:32.333Z,16.05
2022-10-30T06:06:58.946Z,13.07
2022-10-30T06:09:25.587Z,13.70
2022-10-30T06:11:53.608Z,23.13
2022-10-30T06:14:20.266Z,20.88
2022-10-30T06:16:47.041Z,17.23
2022-10-30T06:19:17.479Z,17.58
2022-10-30T06:21:46.342Z,19.60
2022-10-30T06:24:13.827Z,21.08
2022-10-30T06:26:40.942Z,20.52
2022-10-30T06:29:07.631Z,18.00
2022-10-30T06:31:34.339Z,23.35
2022-10-30T06:34:01.085Z,18.77
2022-10-30T06:36:27.755Z,17.52
2022-10-30T06:38:54.351Z,26.45
2022-10-30T06:41:24.614Z,19.48
2022-10-30T06:43:56.667Z,15.70
2022-10-30T06:46:25.770Z,15.05
2022-10-30T06:48:55.844Z,20.80
2022-10-30T06:51:22.639Z,24.60
2022-10-30T06:53:49.220Z,24.98
2022-10-30T06:56:15.849Z,22.90
2022-10-30T06:58:43.121Z,24.90
2022-10-30T07:01:09.810Z,30.63
2022-10-30T07:03:36.425Z,27.42
2022-10-30T07:06:03.634Z,22.40
2022-10-30T07:08:30.237Z,22.83
2022-10-30T07:10:58.489Z,35.25
2022-10-30T07:13:25.632Z,28.25
2022-10-30T07:15:52.232Z,23.92
2022-10-30T07:18:18.861Z,29.90
2022-10-30T07:20:45.517Z,23.88
2022-10-30T07:23:12.101Z,22.52
2022-10-30T07:25:38.665Z,25.65
2022-10-30T07:28:05.483Z,23.80
2022-10-30T07:30:32.108Z,23.42
2022-10-30T07:33:01.051Z,21.35
2022-10-30T07:35:28.887Z,22.50
2022-10-30T07:37:56.065Z,24.88
2022-10-30T07:40:23.275Z,25.02
2022-10-30T07:42:49.918Z,20.98
2022-10-30T07:45:16.811Z,24.63
2022-10-30T07:47:43.875Z,20.13
2022-10-30T07:50:11.468Z,26.77
2022-10-30T07:52:38.204Z,20.38
2022-10-30T07:55:05.960Z,23.90
2022-10-30T07:57:40.925Z,22.42
2022-10-30T08:00:13.252Z,21.00
2022-10-30T08:02:40.187Z,25.83
2022-10-30T08:05:07.640Z,24.38
2022-10-30T08:07:37.807Z,27.38
2022-10-30T08:10:05.895Z,26.67
2022-10-30T08:12:33.459Z,36.10
2022-10-30T08:15:00.523Z,34.38
2022-10-30T08:17:27.192Z,36.35
2022-10-30T08:19:53.952Z,29.90
2022-10-30T08:22:21.386Z,25.17
2022-10-30T08:24:48.023Z,29.42
2022-10-30T08:27:14.616Z,22.98
2022-10-30T08:29:41.956Z,28.00
2022-10-30T08:32:08.693Z,23.23
2022-10-30T08:34:35.441Z,23.80
2022-10-30T08:37:02.092Z,26.40
2022-10-30T08:39:28.804Z,27.83
2022-10-30T08:41:58.879Z,33.50
2022-10-30T08:44:25.720Z,30.95
2022-10-30T08:46:52.368Z,28.88
2022-10-30T08:49:18.970Z,30.70
2022-10-30T08:51:46.275Z,21.25
2022-10-30T08:54:12.980Z,28.75
2022-10-30T08:56:39.572Z,27.05
2022-10-30T08:59:06.256Z,24.85
2022-10-30T09:01:32.931Z,27.25
2022-10-30T09:03:59.735Z,23.33
2022-10-30T09:06:26.297Z,26.50
2022-10-30T09:08:52.901Z,26.00
2022-10-30T09:11:19.592Z,21.70
2022-10-30T09:13:46.160Z,21.35
2022-10-30T09:16:12.719Z,24.88
2022-10-30T09:18:39.410Z,25.67
2022-10-30T09:21:06.062Z,22.55
2022-10-30T09:23:32.870Z,26.20
2022-10-30T09:25:59.562Z,26.17
2022-10-30T09:28:26.139Z,19.63
2022-10-30T09:30:56.314Z,21.17
2022-10-30T09:33:23.257Z,24.83
2022-10-30T09:35:49.821Z,28.80
2022-10-30T09:38:16.391Z,29.00
2022-10-30T09:40:57.887Z,26.15
2022-10-30T09:43:58.651Z,23.13
2022-10-30T09:46:41.388Z,25.80
2022-10-30T09:49:45.820Z,27.23
2022-10-30T09:52:27.766Z,23.40
2022-10-30T09:55:22.425Z,21.98
2022-10-30T09:57:56.795Z,23.45
2022-10-30T10:00:51.579Z,32.38
2022-10-30T10:06:02.543Z,20.33
2022-10-30T10:08:39.129Z,22.23
2022-10-30T10:11:20.137Z,24.20
2022-10-30T10:14:26.283Z,24.55
2022-10-30T10:16:54.018Z,21.23
2022-10-30T10:19:22.325Z,20.83
2022-10-30T10:21:53.392Z,21.15
2022-10-30T10:24:27.248Z,22.13
2022-10-30T10:27:08.757Z,17.35
2022-10-30T10:30:03.447Z,24.73
2022-10-30T10:38:38.594Z,25.52
2022-10-30T10:41:23.757Z,19.52
2022-10-30T10:44:19.027Z,15.70
2022-10-30T10:47:41.099Z,17.65
2022-10-30T10:50:17.955Z,18.25
2022-10-30T10:53:03.449Z,17.77
2022-10-30T10:55:36.619Z,17.77
2022-10-30T10:58:25.825Z,21.47
2022-10-30T11:00:53.350Z,18.67
2022-10-30T11:03:32.403Z,14.20
2022-10-30T11:06:22.409Z,23.25
2022-10-30T11:08:49.433Z,18.67
2022-10-30T11:11:16.127Z,17.40
2022-10-30T11:13:44.583Z,20.58
2022-10-30T11:16:38.296Z,17.30
2022-10-30T11:19:09.055Z,20.73
2022-10-30T11:21:43.262Z,20.58
2022-10-30T11:24:27.780Z,20.70
2022-10-30T11:26:57.208Z,19.65
2022-10-30T11:29:27.914Z,19.38
2022-10-30T11:32:05.686Z,19.92
2022-10-30T11:34:33.585Z,20.08
2022-10-30T11:37:00.337Z,19.08
2022-10-30T11:39:33.932Z,15.80
2022-10-30T11:42:14.648Z,20.90
2022-10-30T11:44:49.398Z,17.50
2022-10-30T11:47:18.571Z,22.10
2022-10-30T11:49:53.836Z,16.55
2022-10-30T11:52:24.629Z,19.02
2022-10-30T11:55:11.432Z,19.05
2022-10-30T11:57:43.584Z,16.83
2022-10-30T12:00:25.052Z,17.92
2022-10-30T12:02:53.896Z,20.77
2022-10-30T12:05:37.073Z,17.02
2022-10-30T12:08:09.464Z,18.70
2022-10-30T12:10:47.638Z,13.13
2022-10-30T12:13:19.211Z,15.43
2022-10-30T12:15:48.816Z,22.55
2022-10-30T12:20:58.612Z,19.17
2022-10-30T12:23:27.994Z,16.17
2022-10-30T12:26:12.593Z,15.20
2022-10-30T12:28:40.540Z,22.65
2022-10-30T12:31:28.346Z,18.90
2022-10-30T12:34:28.292Z,16.30
2022-10-30T12:37:08.569Z,21.58
2022-10-30T12:39:53.965Z,19.52
2022-10-30T12:42:25.374Z,14.07
2022-10-30T12:45:00.346Z,19.77
2022-10-30T12:47:39.008Z,13.45
2022-10-30T12:50:22.202Z,17.58
2022-10-30T12:53:00.506Z,26.20
2022-10-30T12:55:34.216Z,20.58
2022-10-30T12:58:14.784Z,14.95
2022-10-30T13:00:51.988Z,18.85
2022-10-30T13:03:29.078Z,26.30
2022-10-30T13:06:01.070Z,23.60
2022-10-30T13:08:39.880Z,21.50
2022-10-30T13:11:24.472Z,19.90
2022-10-30T13:13:54.496Z,13.80
2022-10-30T13:16:29.440Z,14.48
2022-10-30T13:19:03.182Z,13.40
2022-10-30T13:22:00.861Z,20.27
2022-10-30T13:25:03.582Z,16.02
2022-10-30T13:27:33.960Z,21.10
2022-10-30T13:30:06.973Z,16.88
2022-10-30T13:33:04.960Z,17.17
2022-10-30T13:35:43.792Z,18.13
2022-10-30T13:38:22.401Z,19.63
2022-10-30T13:41:11.236Z,22.17
2022-10-30T13:43:43.856Z,19.08
2022-10-30T13:46:23.652Z,19.63
2022-10-30T13:49:11.471Z,24.25
2022-10-30T13:51:49.194Z,21.52
2022-10-30T13:54:44.844Z,20.80
2022-10-30T13:57:20.374Z,20.50
2022-10-30T14:00:01.624Z,11.82
2022-10-30T14:02:50.833Z,19.45
2022-10-30T14:05:30.251Z,14.20
2022-10-30T14:08:25.979Z,14.23
2022-10-30T14:10:59.501Z,21.02
2022-10-30T14:13:55.230Z,19.65
2022-10-30T14:17:14.104Z,20.65
2022-10-30T14:20:08.785Z,20.10
2022-10-30T14:22:40.753Z,20.30
2022-10-30T14:25:15.515Z,23.80
2022-10-30T14:27:42.528Z,14.90
2022-10-30T14:30:19.585Z,26.13
2022-10-30T14:32:51.345Z,17.05
2022-10-30T14:35:38.308Z,33.60
2022-10-30T14:38:10.620Z,31.80
2022-10-30T14:41:20.199Z,36.10
2022-10-30T14:43:49.497Z,24.20
2022-10-30T14:46:42.506Z,37.50
2022-10-30T14:49:33.684Z,35.53
2022-10-30T14:52:26.767Z,24.00
2022-10-30T14:55:17.620Z,21.77
2022-10-30T14:58:05.867Z,21.80
2022-10-30T15:00:43.127Z,24.35
2022-10-30T15:03:14.835Z,22.83
2022-10-30T15:05:56.231Z,20.35
2022-10-30T15:08:53.850Z,21.58
2022-10-30T15:11:51.808Z,25.25
2022-10-30T15:14:53.560Z,24.13
2022-10-30T15:17:32.310Z,26.85
2022-10-30T15:20:02.457Z,16.85
2022-10-30T15:22:30.599Z,21.13
2022-10-30T15:24:58.479Z,15.95
2022-10-30T15:27:26.330Z,18.00
2022-10-30T15:30:00.194Z,20.00
2022-10-30T15:32:27.108Z,23.60
2022-10-30T15:34:59.944Z,19.88
2022-10-30T15:37:27.404Z,20.92
2022-10-30T15:40:30.466Z,17.98
2022-10-30T15:42:59.400Z,21.05
2022-10-30T15:45:37.203Z,26.30
2022-10-30T15:48:19.762Z,22.08
2022-10-30T15:51:05.476Z,28.35
2022-10-30T15:53:43.107Z,31.38
2022-10-30T15:56:41.137Z,22.65
2022-10-30T15:59:25.640Z,21.13
2022-10-30T16:01:55.019Z,20.95
2022-10-30T16:04:27.234Z,20.52
2022-10-30T16:06:56.577Z,22.55
2022-10-30T16:09:24.401Z,20.73
2022-10-30T16:11:53.873Z,19.52
2022-10-30T16:14:25.930Z,14.60
2022-10-30T16:16:52.999Z,18.88
2022-10-30T16:19:31.592Z,17.58
2022-10-30T16:21:59.305Z,17.00
2022-10-30T16:24:45.450Z,16.27
2022-10-30T16:27:18.526Z,19.23
2022-10-30T16:29:54.022Z,18.23
2022-10-30T16:32:24.507Z,20.45
2022-10-30T16:34:58.942Z,21.63
2022-10-30T16:37:37.445Z,14.30
2022-10-30T16:40:14.242Z,23.20
2022-10-30T16:42:41.328Z,25.73
2022-10-30T16:45:10.933Z,22.05
2022-10-30T16:47:44.655Z,22.95
2022-10-30T16:50:15.371Z,24.40
2022-10-30T16:52:43.404Z,14.70
2022-10-30T16:55:21.288Z,18.67
2022-10-30T16:57:53.951Z,20.00
2022-10-30T17:00:26.054Z,23.42
2022-10-30T17:02:57.313Z,24.92
2022-10-30T17:05:29.492Z,19.20
2022-10-30T17:08:04.350Z,24.63
2022-10-30T17:10:56.726Z,28.25
2022-10-30T17:13:42.590Z,19.23
2022-10-30T17:16:21.899Z,13.48
2022-10-30T17:18:55.207Z,19.48
2022-10-30T17:21:26.893Z,16.13
2022-10-30T17:23:57.462Z,21.30
2022-10-30T17:26:25.758Z,23.63
2022-10-30T17:28:52.440Z,29.40
2022-10-30T17:31:23.213Z,23.92
2022-10-30T17:34:16.441Z,29.67
2022-10-30T17:36:43.581Z,24.30
2022-10-30T17:39:10.292Z,27.38
2022-10-30T17:41:37.379Z,29.35
2022-10-30T17:44:05.212Z,21.08
2022-10-30T17:46:32.164Z,19.95
2022-10-30T17:48:59.460Z,20.90
2022-10-30T17:51:26.787Z,23.02
2022-10-30T17:53:53.538Z,20.35
2022-10-30T17:56:27.659Z,22.73
2022-10-30T18:01:26.311Z,25.00
2022-10-30T18:03:57.582Z,21.23
2022-10-30T18:06:26.750Z,17.38
2022-10-30T18:08:53.731Z,18.15
2022-10-30T18:11:22.806Z,19.75
2022-10-30T18:13:51.296Z,20.92
2022-10-30T18:16:18.904Z,16.05
2022-10-30T18:18:45.620Z,16.15
2022-10-30T18:21:14.850Z,27.60
2022-10-30T18:23:56.964Z,18.80
2022-10-30T18:26:27.559Z,19.27
2022-10-30T18:28:54.857Z,14.50
2022-10-30T18:31:24.335Z,16.48
2022-10-30T18:33:51.404Z,18.63
2022-10-30T18:36:24.050Z,11.55
2022-10-30T18:38:54.704Z,10.57
2022-10-30T18:41:36.387Z,14.57
2022-10-30T18:44:03.922Z,15.30
2022-10-30T18:46:32.516Z,13.88
2022-10-30T18:48:59.177Z,24.77
2022-10-30T18:51:27.581Z,23.65
2022-10-30T18:53:56.660Z,26.70
2022-10-30T18:56:26.513Z,10.77
2022-10-30T18:58:56.779Z,11.10
2022-10-30T19:01:28.401Z,11.63
2022-10-30T19:03:55.182Z,8.07
2022-10-30T19:06:23.797Z,4.47
2022-10-30T19:08:50.742Z,7.10
2022-10-30T19:11:24.129Z,3.28
2022-10-30T19:13:53.143Z,1.20
2022-10-30T19:16:20.831Z,1.20
2022-10-30T19:18:48.597Z,1.20
2022-10-30T19:21:21.391Z,1.60
2022-10-30T19:23:48.614Z,1.20
2022-10-30T19:26:16.082Z,1.00
2022-10-30T19:28:43.721Z,1.38
2022-10-30T19:31:14.425Z,1.40
2022-10-30T19:33:41.659Z,1.05
2022-10-30T19:36:36.063Z,5.43
2022-10-30T19:39:08.949Z,4.50
2022-10-30T19:41:36.951Z,1.10
2022-10-30T19:44:03.956Z,1.58
2022-10-30T19:46:30.614Z,1.48
2022-10-30T19:48:58.649Z,2.45
2022-10-30T19:51:28.932Z,1.17
2022-10-30T19:53:56.001Z,5.38
2022-10-30T19:56:22.921Z,1.75
2022-10-30T19:58:49.872Z,7.53
2022-10-30T20:01:16.877Z,2.55
2022-10-30T20:03:43.814Z,6.35
2022-10-30T20:06:12.671Z,2.60
2022-10-30T20:08:39.724Z,5.22
2022-10-30T20:11:06.504Z,1.88
2022-10-30T20:13:33.775Z,8.48
2022-10-30T20:16:04.453Z,2.05
2022-10-30T20:18:33.186Z,1.50
2022-10-30T20:21:01.625Z,1.50
2022-10-30T20:23:28.948Z,1.55
2022-10-30T20:26:01.409Z,1.98
2022-10-30T20:28:31.800Z,1.73
2022-10-30T20:30:58.442Z,1.70
2022-10-30T20:33:26.703Z,1.70
2022-10-30T20:35:54.812Z,1.50
2022-10-30T20:38:27.298Z,1.85
2022-10-30T20:40:54.355Z,3.22
2022-10-30T20:43:35.225Z,1.30
2022-10-30T20:46:03.197Z,2.03
2022-10-30T20:48:30.186Z,2.58
2022-10-30T20:50:58.258Z,2.97
2022-10-30T20:53:25.039Z,2.70
2022-10-30T20:55:52.033Z,2.67
2022-10-30T20:58:19.010Z,2.95
2022-10-30T21:00:46.077Z,3.95
2022-10-30T21:03:15.697Z,4.68
2022-10-30T21:05:45.339Z,6.72
2022-10-30T21:08:13.738Z,6.13
2022-10-30T21:10:41.562Z,6.43
2022-10-30T21:13:09.463Z,4.05
2022-10-30T21:15:42.351Z,7.93
2022-10-30T21:18:11.058Z,7.10
2022-10-30T21:20:38.041Z,9.95
2022-10-30T21:23:05.580Z,7.72
2022-10-30T21:25:32.580Z,9.00
2022-10-30T21:27:59.918Z,8.20
2022-10-30T21:30:26.710Z,8.80
2022-10-30T21:32:53.431Z,9.40
2022-10-30T21:35:20.352Z,6.35
2022-10-30T21:37:47.149Z,11.70
2022-10-30T21:40:13.858Z,5.95
2022-10-30T21:42:40.522Z,7.72
2022-10-30T21:45:07.994Z,8.50
2022-10-30T21:47:34.643Z,7.90
2022-10-30T21:50:03.686Z,7.43
2022-10-30T21:52:33.589Z,5.97
2022-10-30T21:55:00.169Z,13.02
2022-10-30T21:57:28.080Z,7.45
2022-10-30T21:59:54.726Z,8.75
2022-10-30T22:02:21.762Z,8.23
2022-10-30T22:04:48.573Z,8.32
2022-10-30T22:07:18.018Z,3.70
2022-10-30T22:09:44.575Z,3.97
2022-10-30T22:12:11.195Z,6.20
2022-10-30T22:14:37.817Z,5.18
2022-10-30T22:17:04.631Z,5.07
2022-10-30T22:19:31.277Z,6.85
2022-10-30T22:21:57.865Z,7.57
2022-10-30T22:24:24.520Z,7.25
2022-10-30T22:26:51.095Z,4.43
2022-10-30T22:29:17.748Z,4.53
2022-10-30T22:31:44.300Z,4.28
2022-10-30T22:34:10.937Z,6.95
2022-10-30T22:36:37.725Z,6.32
2022-10-30T22:39:07.803Z,7.32
2022-10-30T22:41:37.508Z,4.93
2022-10-30T22:44:08.080Z,6.80
2022-10-30T22:46:36.135Z,3.33
2022-10-30T22:49:03.535Z,6.10
2022-10-30T22:51:32.864Z,4.05
2022-10-30T22:54:02.060Z,4.63
2022-10-30T22:56:31.687Z,4.57
2022-10-30T22:59:01.383Z,7.38
2022-10-30T23:01:30.761Z,4.72
2022-10-30T23:03:59.814Z,5.35
2022-10-30T23:06:28.440Z,11.38
2022-10-30T23:08:57.179Z,6.47
2022-10-30T23:11:24.717Z,7.95
2022-10-30T23:13:51.776Z,6.47
2022-10-30T23:16:20.530Z,7.45
2022-10-30T23:18:47.175Z,8.90
2022-10-30T23:21:17.147Z,6.90
2022-10-30T23:23:43.953Z,9.45
2022-10-30T23:26:16.542Z,5.40
2022-10-30T23:28:44.555Z,4.13
2022-10-30T23:31:16.576Z,6.60
2022-10-30T23:33:43.177Z,9.50
2022-10-30T23:36:09.987Z,4.75
2022-10-30T23:38:36.567Z,4.63
2022-10-30T23:41:03.205Z,4.35
2022-10-30T23:43:29.804Z,2.75
2022-10-30T23:45:56.388Z,3.78
2022-10-30T23:48:23.128Z,1.77
2022-10-30T23:50:50.011Z,1.90
2022-10-30T23:53:16.560Z,1.73
2022-10-30T23:55:53.820Z,2.85
2022-10-30T23:58:21.343Z,1.80
